Time;durP1;ratioP1;P1;durP2;ratioP2;P2;SDS_P1;SDS_P2;PMS_P1;PMS_P2;Temp;Humidity;BMP_temperature;BMP_pressure;BME280_temperature;BME280_humidity;BME280_pressure;Samples;Min_cycle;Max_cycle;Signal;HPM_P1;HPM_P2
2023/04/21 00:02:26;;;;;;;7.97;7.18;;;10.00;99.90;;;;;;5031471;28;20124;-43
2023/04/21 00:04:52;;;;;;;6.90;6.20;;;9.90;99.90;;;;;;5032161;28;20483;-43
2023/04/21 00:07:19;;;;;;;8.00;6.93;;;10.00;99.90;;;;;;5031007;28;20446;-42
2023/04/21 00:09:44;;;;;;;7.65;6.85;;;9.90;99.90;;;;;;5032135;28;20124;-44
2023/04/21 00:12:10;;;;;;;8.63;7.47;;;9.90;99.90;;;;;;5032362;28;20049;-44
2023/04/21 00:14:36;;;;;;;8.23;7.25;;;9.90;99.90;;;;;;5031701;28;20439;-42
2023/04/21 00:17:01;;;;;;;7.55;6.78;;;9.90;99.90;;;;;;5031074;28;20037;-38
2023/04/21 00:19:28;;;;;;;7.78;6.65;;;9.90;99.90;;;;;;5031874;28;20025;-43
2023/04/21 00:21:57;;;;;;;7.97;7.18;;;9.90;99.90;;;;;;5031774;28;20109;-43
2023/04/21 00:24:24;;;;;;;8.40;6.88;;;9.90;99.90;;;;;;5031550;28;20021;-43
2023/04/21 00:26:50;;;;;;;7.88;6.60;;;9.90;99.90;;;;;;5030736;28;20021;-38
2023/04/21 00:29:15;;;;;;;8.88;7.00;;;9.90;99.90;;;;;;5031185;28;20472;-40
2023/04/21 00:31:41;;;;;;;7.63;6.80;;;9.90;99.90;;;;;;5032902;28;20021;-43
2023/04/21 00:34:06;;;;;;;7.72;6.30;;;9.90;99.90;;;;;;5031501;28;20030;-43
2023/04/21 00:36:32;;;;;;;7.18;6.43;;;9.90;99.90;;;;;;5031305;28;20067;-39
2023/04/21 00:38:57;;;;;;;7.05;6.13;;;9.90;99.90;;;;;;5030475;28;20037;-44
2023/04/21 00:41:23;;;;;;;6.63;5.80;;;9.90;99.90;;;;;;5030883;28;20029;-43
2023/04/21 00:44:06;;;;;;;7.95;6.57;;;9.80;99.90;;;;;;5032117;28;20021;-43
2023/04/21 00:46:33;;;;;;;6.97;6.28;;;9.80;99.90;;;;;;5030631;28;20071;-42
2023/04/21 00:49:02;;;;;;;7.07;6.38;;;9.80;99.90;;;;;;5031369;28;20437;-43
2023/04/21 00:51:28;;;;;;;7.53;6.45;;;9.80;99.90;;;;;;5030930;28;20033;-38
2023/04/21 00:53:55;;;;;;;7.05;6.00;;;9.80;99.90;;;;;;5032501;28;20633;-43
2023/04/21 00:56:21;;;;;;;7.30;6.60;;;9.80;99.90;;;;;;5030926;28;20029;-43
2023/04/21 00:58:48;;;;;;;6.57;5.88;;;9.80;99.90;;;;;;5031468;28;20037;-37
2023/04/21 01:01:14;;;;;;;7.80;6.80;;;9.80;99.90;;;;;;5030986;28;20307;-40
2023/04/21 01:03:40;;;;;;;6.97;5.70;;;9.80;99.90;;;;;;5029433;28;20041;-43
2023/04/21 01:06:07;;;;;;;6.85;6.13;;;9.80;99.90;;;;;;5032004;28;20476;-43
2023/04/21 01:08:33;;;;;;;6.70;6.00;;;9.80;99.90;;;;;;5035491;28;20037;-42
2023/04/21 01:10:59;;;;;;;7.07;6.20;;;9.80;99.90;;;;;;5035587;28;20053;-39
2023/04/21 01:13:24;;;;;;;6.53;5.78;;;9.80;99.90;;;;;;5034796;28;20056;-43
2023/04/21 01:15:50;;;;;;;6.60;5.75;;;9.70;99.90;;;;;;5035375;28;20037;-40
2023/04/21 01:18:17;;;;;;;6.50;5.85;;;9.70;99.90;;;;;;5035026;28;20103;-39
2023/04/21 01:20:43;;;;;;;6.25;5.65;;;9.70;99.90;;;;;;5034832;28;20256;-44
2023/04/21 01:23:09;;;;;;;6.13;5.53;;;9.70;99.90;;;;;;5034755;28;20018;-43
2023/04/21 01:25:35;;;;;;;6.15;5.55;;;9.70;99.90;;;;;;5034782;28;20029;-43
2023/04/21 01:28:01;;;;;;;7.15;6.43;;;9.70;99.90;;;;;;5034317;28;20391;-43
2023/04/21 01:30:27;;;;;;;6.85;6.15;;;9.70;99.90;;;;;;5034441;28;20488;-40
2023/04/21 01:32:53;;;;;;;6.78;6.07;;;9.70;99.90;;;;;;5034427;28;20056;-43
2023/04/21 01:35:19;;;;;;;7.60;5.88;;;9.70;99.90;;;;;;5034803;28;20030;-39
2023/04/21 01:37:44;;;;;;;5.93;5.32;;;9.70;99.90;;;;;;5034850;28;20535;-39
2023/04/21 01:40:10;;;;;;;6.97;6.28;;;9.70;99.90;;;;;;5034708;28;20026;-42
2023/04/21 01:42:39;;;;;;;6.68;5.88;;;9.70;99.90;;;;;;5034616;28;20045;-43
2023/04/21 01:45:06;;;;;;;6.55;5.70;;;9.60;99.90;;;;;;5035273;28;20498;-44
2023/04/21 01:47:32;;;;;;;6.00;5.40;;;9.70;99.90;;;;;;5033634;28;20036;-42
2023/04/21 01:49:57;;;;;;;7.65;5.60;;;9.60;99.90;;;;;;5034110;28;20034;-43
2023/04/21 01:52:23;;;;;;;5.93;5.30;;;9.60;99.90;;;;;;5034530;28;20022;-43
2023/04/21 01:54:49;;;;;;;6.53;5.82;;;9.60;99.90;;;;;;5034968;28;20391;-43
2023/04/21 01:57:15;;;;;;;6.72;5.35;;;9.60;99.90;;;;;;5033331;28;20036;-43
2023/04/21 01:59:41;;;;;;;6.20;5.47;;;9.60;99.90;;;;;;5035303;28;20036;-43
2023/04/21 02:02:07;;;;;;;6.75;6.05;;;9.60;99.90;;;;;;5034655;28;20033;-41
2023/04/21 02:04:33;;;;;;;6.10;5.50;;;9.60;99.90;;;;;;5033769;28;20550;-44
2023/04/21 02:06:58;;;;;;;6.65;5.70;;;9.60;99.90;;;;;;5033093;28;20053;-39
2023/04/21 02:09:24;;;;;;;5.88;5.32;;;9.60;99.90;;;;;;5033702;28;20056;-44
2023/04/21 02:11:50;;;;;;;5.97;5.43;;;9.60;99.90;;;;;;5034619;28;20030;-43
2023/04/21 02:14:15;;;;;;;8.45;5.38;;;9.60;99.90;;;;;;5035064;28;20025;-43
2023/04/21 02:16:41;;;;;;;6.53;5.32;;;9.60;99.90;;;;;;5033009;28;20116;-43
2023/04/21 02:19:07;;;;;;;6.57;5.53;;;9.60;99.90;;;;;;5035110;28;20133;-43
2023/04/21 02:21:33;;;;;;;6.20;5.60;;;9.60;99.90;;;;;;5033525;28;20021;-41
2023/04/21 02:23:59;;;;;;;6.60;5.90;;;9.60;99.90;;;;;;5033896;28;20036;-43
2023/04/21 02:26:24;;;;;;;5.65;5.03;;;9.60;99.90;;;;;;5033936;28;20029;-43
2023/04/21 02:28:50;;;;;;;5.97;5.38;;;9.60;99.90;;;;;;5033425;28;20032;-43
2023/04/21 02:31:17;;;;;;;5.68;5.07;;;9.50;99.90;;;;;;5034162;28;20026;-43
2023/04/21 02:33:43;;;;;;;6.20;5.50;;;9.60;99.90;;;;;;5033460;28;20057;-43
2023/04/21 02:36:09;;;;;;;6.22;5.05;;;9.50;99.90;;;;;;5032621;28;20678;-43
2023/04/21 02:38:35;;;;;;;6.10;5.50;;;9.50;99.90;;;;;;5032220;28;20256;-43
2023/04/21 02:41:01;;;;;;;5.65;5.10;;;9.50;99.90;;;;;;5033136;28;20024;-44
2023/04/21 02:43:26;;;;;;;6.03;5.43;;;9.60;99.90;;;;;;5033046;28;20488;-43
2023/04/21 02:45:52;;;;;;;6.20;5.60;;;9.50;99.90;;;;;;5032760;28;20028;-42
2023/04/21 02:48:21;;;;;;;5.78;5.18;;;9.50;99.90;;;;;;5033257;28;20026;-43
2023/04/21 02:50:48;;;;;;;5.72;5.05;;;9.60;99.90;;;;;;5033102;28;20033;-43
2023/04/21 02:53:15;;;;;;;5.80;5.13;;;9.50;99.90;;;;;;5033161;28;20118;-42
2023/04/21 02:55:41;;;;;;;6.63;5.28;;;9.50;99.90;;;;;;5032536;28;20040;-41
2023/04/21 02:58:06;;;;;;;6.45;5.75;;;9.50;99.90;;;;;;5032292;28;20029;-41
2023/04/21 03:00:32;;;;;;;5.57;5.07;;;9.50;99.90;;;;;;5033479;28;20033;-38
2023/04/21 03:02:58;;;;;;;5.85;5.35;;;9.50;99.90;;;;;;5032609;28;20491;-45
2023/04/21 03:05:23;;;;;;;6.43;5.70;;;9.50;99.90;;;;;;5032574;28;20052;-44
2023/04/21 03:07:49;;;;;;;7.50;5.50;;;9.50;99.90;;;;;;5033029;28;20038;-43
2023/04/21 03:10:15;;;;;;;5.18;4.53;;;9.50;99.90;;;;;;5032702;28;20086;-43
2023/04/21 03:12:41;;;;;;;5.80;4.78;;;9.50;99.90;;;;;;5034695;28;20396;-41
2023/04/21 03:15:06;;;;;;;5.97;5.38;;;9.50;99.90;;;;;;5033834;28;20557;-43
2023/04/21 03:17:32;;;;;;;5.80;5.18;;;9.50;99.90;;;;;;5032383;28;20033;-42
2023/04/21 03:19:58;;;;;;;6.03;5.35;;;9.50;99.90;;;;;;5033787;28;20025;-42
2023/04/21 03:22:23;;;;;;;5.80;5.10;;;9.50;99.90;;;;;;5033310;28;20022;-42
2023/04/21 03:24:49;;;;;;;6.10;5.50;;;9.40;99.90;;;;;;5032764;28;20022;-42
2023/04/21 03:27:14;;;;;;;6.03;5.20;;;9.40;99.90;;;;;;5032737;28;20069;-44
2023/04/21 03:29:40;;;;;;;5.90;5.18;;;9.50;99.90;;;;;;5030992;28;20040;-43
2023/04/21 03:32:06;;;;;;;6.13;5.35;;;9.50;99.90;;;;;;5032388;28;20337;-44
2023/04/21 03:34:31;;;;;;;6.57;5.75;;;9.40;99.90;;;;;;5032590;28;20056;-43
2023/04/21 03:36:57;;;;;;;6.63;5.90;;;9.40;99.90;;;;;;5031796;28;20507;-43
2023/04/21 03:39:22;;;;;;;6.57;5.43;;;9.50;99.90;;;;;;5032139;28;20025;-43
2023/04/21 03:41:48;;;;;;;6.75;5.97;;;9.40;99.90;;;;;;5032290;28;20592;-40
2023/04/21 03:44:14;;;;;;;6.70;5.70;;;9.40;99.90;;;;;;5031863;28;20490;-43
2023/04/21 03:46:39;;;;;;;8.30;5.85;;;9.40;99.90;;;;;;5031980;28;20022;-45
2023/04/21 03:49:05;;;;;;;7.10;6.13;;;9.40;99.90;;;;;;5032842;28;20124;-43
2023/04/21 03:51:31;;;;;;;8.40;6.50;;;9.50;99.90;;;;;;5032209;28;20407;-43
2023/04/21 03:53:58;;;;;;;7.15;5.72;;;9.50;99.90;;;;;;5031876;28;20539;-41
2023/04/21 03:56:24;;;;;;;7.45;6.10;;;9.40;99.90;;;;;;5031358;28;20474;-45
2023/04/21 03:58:51;;;;;;;6.88;5.65;;;9.40;99.90;;;;;;5032470;28;20029;-43
2023/04/21 04:01:19;;;;;;;6.55;5.68;;;9.40;99.90;;;;;;5031994;28;20037;-44
2023/04/21 04:03:45;;;;;;;7.22;5.97;;;9.40;99.90;;;;;;5031807;28;20518;-43
2023/04/21 04:06:10;;;;;;;6.47;5.55;;;9.40;99.90;;;;;;5032242;28;20035;-40
2023/04/21 04:08:36;;;;;;;7.20;5.95;;;9.40;99.90;;;;;;5031917;28;20436;-43
2023/04/21 04:11:02;;;;;;;6.93;6.15;;;9.40;99.90;;;;;;5031410;28;20025;-44
2023/04/21 04:13:28;;;;;;;7.30;6.22;;;9.50;99.90;;;;;;5031471;28;20038;-43
2023/04/21 04:15:53;;;;;;;6.95;5.88;;;9.40;99.90;;;;;;5031116;28;20487;-43
2023/04/21 04:18:19;;;;;;;6.88;6.03;;;9.40;99.90;;;;;;5031466;28;20031;-42
2023/04/21 04:20:45;;;;;;;8.55;6.50;;;9.40;99.90;;;;;;5033479;28;20096;-40
2023/04/21 04:23:11;;;;;;;7.35;5.97;;;9.40;99.90;;;;;;5033285;28;20021;-39
2023/04/21 04:25:38;;;;;;;7.80;6.13;;;9.50;99.90;;;;;;5030956;28;20097;-43
2023/04/21 04:28:04;;;;;;;7.78;6.18;;;9.40;99.90;;;;;;5030968;28;20022;-42
2023/04/21 04:30:31;;;;;;;7.82;6.07;;;9.40;99.90;;;;;;5031186;28;20021;-40
2023/04/21 04:32:57;;;;;;;9.93;5.97;;;9.40;99.90;;;;;;5031165;28;20460;-43
2023/04/21 04:35:23;;;;;;;7.82;6.78;;;9.40;99.90;;;;;;5031128;28;20060;-45
2023/04/21 04:37:49;;;;;;;7.90;6.22;;;9.40;99.90;;;;;;5030531;28;20037;-41
2023/04/21 04:40:15;;;;;;;7.63;6.28;;;9.40;99.90;;;;;;5031638;28;20077;-39
2023/04/21 04:42:41;;;;;;;7.47;5.95;;;9.40;99.90;;;;;;5031986;28;20033;-43
2023/04/21 04:45:08;;;;;;;8.10;6.68;;;9.40;99.90;;;;;;5031005;28;20026;-40
2023/04/21 04:47:34;;;;;;;7.53;6.28;;;9.40;99.90;;;;;;5030761;28;20029;-43
2023/04/21 04:49:59;;;;;;;8.32;6.57;;;9.40;99.90;;;;;;5031091;28;20072;-45
2023/04/21 04:52:25;;;;;;;8.18;6.78;;;9.40;99.90;;;;;;5031143;28;20021;-43
2023/04/21 04:54:51;;;;;;;7.35;6.18;;;9.40;99.90;;;;;;5031607;28;20045;-43
2023/04/21 04:57:16;;;;;;;9.20;7.13;;;9.40;99.90;;;;;;5030872;28;20037;-43
2023/04/21 04:59:42;;;;;;;8.10;7.15;;;9.40;99.90;;;;;;5032181;28;20454;-43
2023/04/21 05:02:09;;;;;;;9.00;6.82;;;9.40;99.90;;;;;;5031757;28;20391;-43
2023/04/21 05:04:35;;;;;;;9.65;7.47;;;9.40;99.90;;;;;;5032077;28;20044;-40
2023/04/21 05:07:00;;;;;;;9.73;7.15;;;9.40;99.90;;;;;;5030444;28;20151;-36
2023/04/21 05:09:26;;;;;;;6.95;6.00;;;9.50;99.90;;;;;;5032543;28;20026;-45
2023/04/21 05:11:52;;;;;;;8.60;6.65;;;9.50;99.90;;;;;;5032051;28;20387;-43
2023/04/21 05:14:17;;;;;;;8.18;6.47;;;9.40;99.90;;;;;;5031760;28;20029;-41
2023/04/21 05:16:43;;;;;;;7.97;6.38;;;9.50;99.90;;;;;;5031398;28;20038;-43
2023/04/21 05:19:09;;;;;;;8.02;6.35;;;9.50;99.90;;;;;;5030996;28;20034;-43
2023/04/21 05:21:34;;;;;;;9.10;6.10;;;9.40;99.90;;;;;;5031130;28;20151;-44
2023/04/21 05:24:00;;;;;;;7.03;5.95;;;9.40;99.90;;;;;;5030650;28;20107;-43
2023/04/21 05:26:27;;;;;;;8.68;6.28;;;9.40;99.90;;;;;;5030853;28;20527;-40
2023/04/21 05:28:55;;;;;;;7.32;5.63;;;9.50;99.90;;;;;;5031102;28;20052;-44
2023/04/21 05:31:20;;;;;;;8.70;6.32;;;9.40;99.90;;;;;;5030997;28;20022;-43
2023/04/21 05:33:46;;;;;;;8.48;6.05;;;9.40;99.90;;;;;;5030568;28;20096;-43
2023/04/21 05:36:11;;;;;;;8.80;6.25;;;9.40;99.90;;;;;;5030627;28;20037;-37
2023/04/21 05:38:37;;;;;;;9.00;7.05;;;9.40;99.90;;;;;;5030355;28;20128;-43
2023/04/21 05:41:03;;;;;;;9.10;6.70;;;9.50;99.90;;;;;;5031576;28;20104;-43
2023/04/21 05:43:32;;;;;;;8.90;6.93;;;9.40;99.90;;;;;;5031192;28;20025;-43
2023/04/21 05:45:58;;;;;;;7.38;6.22;;;9.50;99.90;;;;;;5030626;28;20129;-43
2023/04/21 05:48:24;;;;;;;7.78;6.30;;;9.40;99.90;;;;;;5030689;28;20022;-45
2023/04/21 05:50:50;;;;;;;7.10;5.78;;;9.40;99.90;;;;;;5030453;28;20502;-38
2023/04/21 05:53:16;;;;;;;8.15;6.07;;;9.40;99.90;;;;;;5033860;28;20418;-43
2023/04/21 05:55:41;;;;;;;9.18;6.53;;;9.50;99.90;;;;;;5035315;28;20072;-42
2023/04/21 05:58:07;;;;;;;8.30;6.43;;;9.40;99.90;;;;;;5033995;28;20057;-43
2023/04/21 06:00:32;;;;;;;8.32;6.40;;;9.50;99.90;;;;;;5034159;28;20387;-39
2023/04/21 06:02:58;;;;;;;10.10;7.10;;;9.50;99.90;;;;;;5034026;28;20120;-37
2023/04/21 06:05:24;;;;;;;7.72;6.20;;;9.50;99.90;;;;;;5034573;28;20106;-42
2023/04/21 06:07:49;;;;;;;8.38;6.28;;;9.50;99.90;;;;;;5033818;28;20373;-42
2023/04/21 06:10:17;;;;;;;8.45;6.28;;;9.50;99.90;;;;;;5033958;28;20081;-41
2023/04/21 06:12:43;;;;;;;8.13;6.13;;;9.50;99.90;;;;;;5033768;28;20032;-39
2023/04/21 06:15:09;;;;;;;8.18;6.78;;;9.50;99.90;;;;;;5033688;28;20033;-44
2023/04/21 06:17:34;;;;;;;9.30;6.90;;;9.50;99.90;;;;;;5033100;28;20033;-42
2023/04/21 06:20:00;;;;;;;8.25;5.85;;;9.50;99.90;;;;;;5033662;28;20029;-42
2023/04/21 06:22:26;;;;;;;8.30;6.38;;;9.50;99.90;;;;;;5033527;28;20079;-45
2023/04/21 06:24:52;;;;;;;8.10;6.57;;;9.50;99.90;;;;;;5033539;28;20096;-38
2023/04/21 06:27:18;;;;;;;8.30;6.07;;;9.50;99.90;;;;;;5033006;28;20029;-43
2023/04/21 06:29:43;;;;;;;7.93;5.82;;;9.50;99.90;;;;;;5033908;28;20113;-43
2023/04/21 06:32:10;;;;;;;8.30;6.22;;;9.50;99.90;;;;;;5034346;28;20468;-43
2023/04/21 06:34:36;;;;;;;9.40;6.15;;;9.50;99.90;;;;;;5033374;28;20131;-43
2023/04/21 06:37:02;;;;;;;7.90;6.00;;;9.50;99.90;;;;;;5034018;28;20026;-43
2023/04/21 06:39:28;;;;;;;10.85;5.60;;;9.50;99.90;;;;;;5033327;28;20575;-43
2023/04/21 06:41:53;;;;;;;7.35;5.72;;;9.60;99.90;;;;;;5033371;28;20396;-44
2023/04/21 06:44:20;;;;;;;7.85;5.55;;;9.60;99.90;;;;;;5033210;28;20032;-42
2023/04/21 06:46:46;;;;;;;8.18;5.30;;;9.50;99.90;;;;;;5032932;28;20022;-42
2023/04/21 06:49:12;;;;;;;7.53;5.50;;;9.50;99.90;;;;;;5035061;28;20060;-44
2023/04/21 06:51:38;;;;;;;6.30;4.53;;;9.50;99.90;;;;;;5033099;28;20112;-45
2023/04/21 06:54:04;;;;;;;6.22;5.25;;;9.60;99.90;;;;;;5032994;28;20053;-43
2023/04/21 06:56:30;;;;;;;7.10;5.18;;;9.60;99.90;;;;;;5032272;28;20026;-45
2023/04/21 06:58:56;;;;;;;8.23;6.05;;;9.60;99.90;;;;;;5032751;28;20036;-43
2023/04/21 07:01:24;;;;;;;6.57;5.18;;;9.60;99.90;;;;;;5032716;28;20108;-41
2023/04/21 07:03:50;;;;;;;6.40;4.93;;;9.60;99.90;;;;;;5031711;28;20038;-41
2023/04/21 07:06:16;;;;;;;6.95;4.90;;;9.60;99.90;;;;;;5032757;28;20021;-43
2023/04/21 07:08:41;;;;;;;5.65;5.00;;;9.70;99.90;;;;;;5033118;28;20021;-41
2023/04/21 07:11:07;;;;;;;6.93;5.30;;;9.70;99.90;;;;;;5032948;28;20507;-45
2023/04/21 07:13:33;;;;;;;8.15;4.97;;;9.70;99.90;;;;;;5033118;28;20029;-43
2023/04/21 07:15:59;;;;;;;7.03;5.03;;;9.70;99.90;;;;;;5032501;28;20029;-45
2023/04/21 07:18:24;;;;;;;7.40;5.18;;;9.70;99.90;;;;;;5032820;28;20036;-39
2023/04/21 07:20:50;;;;;;;7.70;5.10;;;9.70;99.90;;;;;;5032616;28;20083;-43
2023/04/21 07:23:15;;;;;;;11.57;8.75;;;9.70;99.90;;;;;;5032424;28;20030;-44
2023/04/21 07:25:41;;;;;;;10.55;7.90;;;9.70;99.90;;;;;;5032074;28;20096;-45
2023/04/21 07:28:07;;;;;;;11.50;8.32;;;9.70;99.90;;;;;;5032294;28;20457;-44
2023/04/21 07:30:33;;;;;;;9.98;7.63;;;9.70;99.90;;;;;;5032278;28;20104;-41
2023/04/21 07:32:59;;;;;;;9.43;7.28;;;9.70;99.90;;;;;;5033298;28;20030;-44
2023/04/21 07:35:25;;;;;;;10.30;7.47;;;9.70;99.90;;;;;;5032330;28;20108;-42
2023/04/21 07:37:51;;;;;;;8.15;6.93;;;9.80;99.90;;;;;;5032247;28;20025;-45
2023/04/21 07:40:16;;;;;;;9.93;7.18;;;9.80;99.90;;;;;;5032542;28;20025;-44
2023/04/21 07:42:42;;;;;;;8.95;6.50;;;9.80;99.90;;;;;;5031928;28;20029;-46
2023/04/21 07:45:08;;;;;;;8.75;7.18;;;9.80;99.90;;;;;;5032875;28;20021;-45
2023/04/21 07:47:34;;;;;;;9.20;6.55;;;9.90;99.90;;;;;;5031346;28;20387;-45
2023/04/21 07:50:00;;;;;;;9.00;6.53;;;9.90;99.90;;;;;;5031844;28;20038;-46
2023/04/21 07:52:25;;;;;;;7.22;6.07;;;9.90;99.90;;;;;;5031796;28;20052;-44
2023/04/21 07:54:51;;;;;;;8.00;5.97;;;10.00;99.90;;;;;;5031772;28;20036;-44
2023/04/21 07:57:17;;;;;;;7.35;5.75;;;10.00;99.90;;;;;;5031100;28;20578;-44
2023/04/21 07:59:42;;;;;;;8.35;5.72;;;10.00;99.90;;;;;;5031701;28;20025;-44
2023/04/21 08:02:08;;;;;;;6.30;5.10;;;10.10;99.90;;;;;;5031653;28;20029;-44
2023/04/21 08:04:34;;;;;;;6.88;5.20;;;10.10;99.90;;;;;;5031635;28;20022;-44
2023/04/21 08:07:00;;;;;;;6.65;5.35;;;10.10;99.90;;;;;;5031008;28;20033;-44
2023/04/21 08:09:26;;;;;;;5.97;5.38;;;10.10;99.90;;;;;;5031626;28;20299;-44
2023/04/21 08:11:52;;;;;;;9.50;5.65;;;10.20;99.90;;;;;;5031524;28;20022;-43
2023/04/21 08:14:18;;;;;;;6.40;5.07;;;10.20;99.90;;;;;;5032238;28;20029;-44
2023/04/21 08:16:44;;;;;;;7.30;5.18;;;10.20;99.90;;;;;;5030691;28;20032;-44
2023/04/21 08:19:10;;;;;;;10.02;7.10;;;10.20;99.90;;;;;;5031477;28;20034;-45
2023/04/21 08:21:35;;;;;;;11.43;7.35;;;10.20;99.90;;;;;;5031636;28;20029;-45
2023/04/21 08:24:01;;;;;;;10.05;6.78;;;10.20;99.90;;;;;;5031434;28;20064;-45
2023/04/21 08:26:28;;;;;;;7.82;6.38;;;10.30;99.90;;;;;;5032056;28;20024;-47
2023/04/21 08:28:55;;;;;;;9.15;6.28;;;10.30;99.90;;;;;;5031195;28;20025;-43
2023/04/21 08:31:21;;;;;;;9.43;6.57;;;10.40;99.90;;;;;;5031102;28;20454;-44
2023/04/21 08:33:46;;;;;;;8.50;6.35;;;10.40;99.90;;;;;;5032164;28;20022;-47
2023/04/21 08:36:12;;;;;;;9.63;5.93;;;10.50;99.90;;;;;;5033362;28;20028;-45
2023/04/21 08:38:38;;;;;;;7.53;5.63;;;10.50;99.90;;;;;;5032274;28;20120;-47
2023/04/21 08:41:04;;;;;;;7.00;5.72;;;10.50;99.90;;;;;;5032176;28;20187;-44
2023/04/21 08:43:29;;;;;;;6.13;4.90;;;10.50;99.90;;;;;;5031075;28;20025;-44
2023/04/21 08:45:56;;;;;;;6.85;4.88;;;10.60;99.90;;;;;;5030499;28;20032;-44
2023/04/21 08:48:23;;;;;;;7.03;5.07;;;10.60;99.90;;;;;;5030925;28;20029;-45
2023/04/21 08:50:50;;;;;;;6.80;4.43;;;10.60;99.90;;;;;;5031800;28;20033;-45
2023/04/21 08:53:16;;;;;;;5.68;4.60;;;10.60;99.90;;;;;;5031944;28;20503;-47
2023/04/21 08:55:42;;;;;;;7.90;4.47;;;10.70;99.90;;;;;;5032414;28;20376;-44
2023/04/21 08:58:08;;;;;;;6.57;4.72;;;10.70;99.90;;;;;;5030911;28;20451;-45
2023/04/21 09:00:37;;;;;;;6.18;4.22;;;10.70;99.90;;;;;;5031504;28;20109;-46
2023/04/21 09:03:04;;;;;;;5.90;4.35;;;10.70;99.90;;;;;;5030836;28;20036;-44
2023/04/21 09:05:32;;;;;;;4.65;3.63;;;10.80;99.90;;;;;;5030869;28;20014;-44
2023/04/21 09:08:11;;;;;;;5.35;4.22;;;10.80;99.90;;;;;;5030471;28;20034;-44
2023/04/21 09:10:48;;;;;;;5.72;4.28;;;10.80;99.90;;;;;;5031490;28;20034;-45
2023/04/21 09:13:14;;;;;;;5.97;3.85;;;10.80;99.90;;;;;;5031143;28;20022;-44
2023/04/21 09:15:41;;;;;;;5.32;4.00;;;10.80;99.90;;;;;;5030275;28;20026;-45
2023/04/21 09:18:13;;;;;;;7.22;3.97;;;10.90;99.90;;;;;;5030397;28;20470;-45
2023/04/21 09:20:38;;;;;;;4.97;3.42;;;10.90;99.90;;;;;;5030701;28;20105;-43
2023/04/21 09:23:05;;;;;;;4.90;3.85;;;10.90;99.90;;;;;;5030753;28;20101;-46
2023/04/21 09:25:32;;;;;;;4.53;3.58;;;10.90;99.90;;;;;;5030709;28;20029;-46
2023/04/21 09:27:59;;;;;;;4.53;3.50;;;10.90;99.90;;;;;;5033591;28;20037;-44
2023/04/21 09:30:25;;;;;;;4.45;3.30;;;10.90;99.90;;;;;;5034982;28;20034;-45
2023/04/21 09:32:56;;;;;;;4.35;3.35;;;10.90;99.90;;;;;;5034521;28;20036;-43
2023/04/21 09:35:26;;;;;;;4.47;3.40;;;11.00;99.90;;;;;;5034626;28;20454;-44
2023/04/21 09:37:52;;;;;;;4.60;3.28;;;11.00;99.90;;;;;;5033984;28;20057;-45
2023/04/21 09:40:18;;;;;;;4.07;3.13;;;11.00;99.90;;;;;;5034837;28;20067;-45
2023/04/21 09:42:45;;;;;;;3.80;3.00;;;11.00;99.90;;;;;;5034340;28;20049;-45
2023/04/21 09:45:12;;;;;;;4.57;3.22;;;11.00;99.90;;;;;;5034315;28;20028;-44
2023/04/21 09:47:40;;;;;;;3.80;2.95;;;11.00;99.90;;;;;;5033741;28;20040;-44
2023/04/21 09:50:08;;;;;;;5.05;2.97;;;11.00;99.90;;;;;;5034161;28;20053;-47
2023/04/21 09:52:37;;;;;;;3.80;2.80;;;11.00;99.90;;;;;;5034139;28;20021;-45
2023/04/21 09:55:07;;;;;;;4.57;3.03;;;11.00;99.90;;;;;;5033992;28;20037;-47
2023/04/21 09:57:38;;;;;;;4.43;2.80;;;11.10;99.90;;;;;;5033465;28;20484;-46
2023/04/21 10:00:09;;;;;;;4.85;2.83;;;11.10;99.90;;;;;;5034060;28;20029;-45
2023/04/21 10:02:41;;;;;;;3.40;2.50;;;11.10;99.90;;;;;;5033899;28;20036;-44
2023/04/21 10:05:08;;;;;;;6.05;2.67;;;11.10;99.90;;;;;;5033845;28;20105;-45
2023/04/21 10:07:34;;;;;;;5.03;2.60;;;11.10;99.90;;;;;;5033290;28;20112;-47
2023/04/21 10:10:00;;;;;;;4.97;2.63;;;11.10;99.90;;;;;;5033677;28;20116;-45
2023/04/21 10:12:26;;;;;;;3.50;2.50;;;11.10;99.90;;;;;;5033744;28;20025;-44
2023/04/21 10:14:53;;;;;;;3.95;2.67;;;11.10;99.90;;;;;;5033801;28;20228;-47
2023/04/21 10:17:23;;;;;;;3.63;2.70;;;11.10;99.90;;;;;;5033481;28;20083;-46
2023/04/21 10:19:56;;;;;;;3.45;2.60;;;11.20;99.90;;;;;;5034146;28;20021;-44
2023/04/21 10:22:27;;;;;;;4.20;2.72;;;11.20;99.90;;;;;;5033733;28;20018;-45
2023/04/21 10:24:55;;;;;;;3.85;2.45;;;11.20;99.90;;;;;;5033551;28;20018;-44
2023/04/21 10:27:40;;;;;;;3.38;2.28;;;11.20;99.90;;;;;;5033359;28;20033;-45
2023/04/21 10:30:25;;;;;;;4.30;2.45;;;11.20;99.90;;;;;;5033653;28;20025;-43
2023/04/21 10:33:04;;;;;;;3.10;2.30;;;11.20;99.90;;;;;;5033355;28;20117;-44
2023/04/21 10:36:00;;;;;;;2.70;2.00;;;11.20;99.90;;;;;;5033775;28;20108;-45
2023/04/21 10:38:42;;;;;;;3.30;2.22;;;11.20;99.90;;;;;;5033122;28;20022;-44
2023/04/21 10:41:28;;;;;;;2.45;2.20;;;11.30;99.90;;;;;;5033099;28;20610;-45
2023/04/21 10:43:58;;;;;;;3.20;2.55;;;11.30;99.90;;;;;;5033263;28;20024;-44
2023/04/21 10:46:38;;;;;;;3.78;2.22;;;11.30;99.90;;;;;;5032704;28;20017;-43
2023/04/21 10:49:19;;;;;;;2.92;2.25;;;11.30;99.90;;;;;;5033871;28;20650;-43
2023/04/21 10:51:57;;;;;;;3.63;2.50;;;11.30;99.90;;;;;;5033730;28;20375;-45
2023/04/21 10:54:44;;;;;;;3.28;2.20;;;11.30;99.90;;;;;;5033808;28;20026;-43
2023/04/21 10:57:12;;;;;;;3.08;2.10;;;11.30;99.90;;;;;;5034346;28;20093;-44
2023/04/21 10:59:38;;;;;;;5.05;2.30;;;11.40;99.90;;;;;;5034137;28;20476;-44
2023/04/21 11:02:06;;;;;;;3.22;2.03;;;11.40;99.90;;;;;;5035100;28;20017;-44
2023/04/21 11:04:32;;;;;;;4.07;1.90;;;11.40;99.90;;;;;;5033962;28;20037;-42
2023/04/21 11:07:09;;;;;;;2.33;1.90;;;11.40;99.90;;;;;;5032515;28;20547;-45
2023/04/21 11:09:36;;;;;;;3.05;1.90;;;11.40;99.90;;;;;;5033682;28;20155;-44
2023/04/21 11:12:06;;;;;;;2.90;1.90;;;11.40;99.90;;;;;;5034976;28;20025;-45
2023/04/21 11:14:34;;;;;;;2.08;1.58;;;11.40;99.90;;;;;;5035559;28;20100;-44
2023/04/21 11:17:00;;;;;;;4.38;2.00;;;11.40;99.90;;;;;;5034035;28;20025;-45
2023/04/21 11:19:26;;;;;;;3.70;2.03;;;11.50;99.90;;;;;;5033714;28;20112;-45
2023/04/21 11:21:55;;;;;;;3.95;2.08;;;11.50;99.90;;;;;;5032709;28;20503;-45
2023/04/21 11:24:21;;;;;;;2.83;1.98;;;11.50;99.90;;;;;;5034392;28;20029;-44
2023/04/21 11:26:47;;;;;;;2.80;1.73;;;11.50;99.90;;;;;;5031743;28;20032;-44
2023/04/21 11:29:13;;;;;;;2.90;2.28;;;11.50;99.90;;;;;;5032359;28;20392;-44
2023/04/21 11:31:44;;;;;;;3.92;2.90;;;11.50;99.90;;;;;;5035240;28;20036;-44
2023/04/21 11:34:10;;;;;;;5.97;3.05;;;11.50;99.90;;;;;;5052831;28;20576;-41
2023/04/21 11:36:44;;;;;;;4.75;3.08;;;11.60;99.90;;;;;;5051448;28;20032;-45
2023/04/21 11:39:12;;;;;;;4.45;3.25;;;11.60;99.90;;;;;;5049916;28;20028;-42
2023/04/21 11:41:40;;;;;;;3.92;3.10;;;11.70;99.90;;;;;;5051661;28;20029;-44
2023/04/21 11:44:07;;;;;;;4.97;3.15;;;11.70;99.90;;;;;;5051920;28;20021;-45
2023/04/21 11:46:32;;;;;;;6.75;3.28;;;11.80;99.90;;;;;;5051536;28;20383;-45
2023/04/21 11:48:59;;;;;;;5.65;3.60;;;11.90;99.90;;;;;;5051616;28;20036;-45
2023/04/21 11:51:26;;;;;;;4.13;3.15;;;12.00;99.90;;;;;;5052193;28;20040;-44
2023/04/21 11:53:52;;;;;;;5.10;3.30;;;12.10;99.90;;;;;;5051633;28;20391;-46
2023/04/21 11:56:20;;;;;;;4.88;2.70;;;12.20;99.90;;;;;;5051029;28;20031;-46
2023/04/21 11:58:49;;;;;;;4.38;3.40;;;12.30;99.90;;;;;;5051597;28;20029;-46
2023/04/21 12:01:16;;;;;;;4.90;3.50;;;12.30;99.90;;;;;;5051799;28;20029;-46
2023/04/21 12:03:41;;;;;;;4.65;3.42;;;12.40;99.90;;;;;;5051552;28;20098;-45
2023/04/21 12:06:07;;;;;;;4.13;3.40;;;12.40;99.90;;;;;;5044678;28;20806;-45
2023/04/21 12:08:33;;;;;;;6.15;3.63;;;12.50;99.90;;;;;;5038400;28;20033;-45
2023/04/21 12:11:01;;;;;;;7.97;3.70;;;12.60;99.90;;;;;;5038669;28;20083;-45
2023/04/21 12:13:27;;;;;;;4.60;3.95;;;12.60;99.90;;;;;;5043112;28;20037;-45
2023/04/21 12:15:53;;;;;;;7.85;3.90;;;12.70;99.90;;;;;;5033441;28;20563;-41
2023/04/21 12:18:18;;;;;;;5.15;3.65;;;12.70;99.90;;;;;;5040799;28;21253;-45
2023/04/21 12:20:49;;;;;;;3.95;3.17;;;12.70;99.90;;;;;;5040161;28;20020;-46
2023/04/21 12:23:14;;;;;;;5.05;3.55;;;12.70;99.90;;;;;;5042731;28;20383;-45
2023/04/21 12:25:41;;;;;;;5.25;3.05;;;12.70;99.90;;;;;;5033178;28;20029;-44
2023/04/21 12:28:08;;;;;;;4.15;2.80;;;12.70;99.90;;;;;;5039353;28;20418;-46
2023/04/21 12:30:33;;;;;;;4.05;2.95;;;12.70;99.90;;;;;;5038296;28;20025;-46
2023/04/21 12:32:59;;;;;;;3.95;3.05;;;12.70;99.90;;;;;;5040707;28;20064;-45
2023/04/21 12:35:25;;;;;;;4.05;2.42;;;12.70;99.90;;;;;;5036517;28;20037;-46
2023/04/21 12:37:51;;;;;;;2.90;2.40;;;12.70;99.90;;;;;;5036409;28;20392;-45
2023/04/21 12:40:17;;;;;;;3.42;2.42;;;12.70;99.90;;;;;;5039525;28;20108;-44
2023/04/21 12:42:42;;;;;;;3.30;2.67;;;12.60;99.90;;;;;;5034276;28;20033;-44
2023/04/21 12:45:08;;;;;;;3.55;2.97;;;12.70;99.90;;;;;;5041097;28;20099;-45
2023/04/21 12:47:35;;;;;;;4.35;2.78;;;12.70;99.90;;;;;;5039929;28;20025;-44
2023/04/21 12:50:01;;;;;;;3.42;2.60;;;12.70;99.90;;;;;;5047749;28;20032;-44
2023/04/21 12:52:26;;;;;;;3.58;2.60;;;12.70;99.90;;;;;;5038885;28;20478;-44